createdAt,value
2022-10-17T00:00:21.467Z,15.40
2022-10-17T00:01:22.854Z,15.37
2022-10-17T00:02:24.185Z,15.35
2022-10-17T00:03:25.511Z,15.32
2022-10-17T00:04:26.845Z,15.30
2022-10-17T00:05:28.196Z,15.28
2022-10-17T00:06:29.517Z,15.26
2022-10-17T00:07:31.089Z,15.25
2022-10-17T00:08:32.579Z,15.24
2022-10-17T00:09:33.899Z,15.21
2022-10-17T00:10:35.279Z,15.16
2022-10-17T00:11:36.590Z,15.12
2022-10-17T00:12:37.933Z,15.10
2022-10-17T00:13:39.218Z,15.13
2022-10-17T00:14:40.556Z,15.09
2022-10-17T00:15:43.316Z,15.09
2022-10-17T00:16:44.596Z,15.09
2022-10-17T00:17:45.892Z,15.08
2022-10-17T00:18:47.181Z,15.09
2022-10-17T00:19:48.540Z,15.05
2022-10-17T00:20:50.248Z,15.07
2022-10-17T00:21:51.544Z,15.06
2022-10-17T00:22:52.975Z,15.05
2022-10-17T00:23:54.306Z,15.04
2022-10-17T00:24:55.608Z,15.03
2022-10-17T00:26:00.583Z,15.03
2022-10-17T00:27:01.924Z,15.03
2022-10-17T00:28:03.485Z,15.05
2022-10-17T00:29:04.841Z,15.05
2022-10-17T00:30:07.496Z,15.07
2022-10-17T00:31:08.807Z,15.07
2022-10-17T00:32:10.101Z,15.06
2022-10-17T00:33:11.392Z,15.07
2022-10-17T00:34:12.671Z,15.04
2022-10-17T00:35:14.078Z,15.06
2022-10-17T00:36:21.005Z,15.09
2022-10-17T00:37:22.295Z,15.14
2022-10-17T00:38:23.571Z,15.14
2022-10-17T00:39:25.019Z,15.09
2022-10-17T00:40:26.350Z,15.10
2022-10-17T00:41:29.245Z,15.11
2022-10-17T00:42:30.971Z,15.15
2022-10-17T00:43:51.391Z,15.16
2022-10-17T00:44:58.644Z,15.18
2022-10-17T00:45:59.978Z,15.17
2022-10-17T00:47:05.850Z,15.22
2022-10-17T00:48:11.427Z,15.24
2022-10-17T00:49:12.768Z,15.26
2022-10-17T00:50:14.900Z,15.24
2022-10-17T00:51:16.995Z,15.19
2022-10-17T00:52:21.186Z,15.17
2022-10-17T00:53:22.583Z,15.14
2022-10-17T00:54:25.341Z,15.14
2022-10-17T00:55:28.341Z,15.12
2022-10-17T00:56:30.634Z,15.09
2022-10-17T00:57:33.575Z,15.07
2022-10-17T00:58:34.873Z,15.05
2022-10-17T00:59:37.700Z,15.03
2022-10-17T01:00:39.499Z,15.01
2022-10-17T01:01:41.819Z,14.98
2022-10-17T01:02:43.370Z,14.96
2022-10-17T01:03:44.755Z,14.92
2022-10-17T01:04:47.884Z,14.92
2022-10-17T01:05:49.241Z,14.87
2022-10-17T01:06:50.516Z,14.84
2022-10-17T01:07:52.811Z,14.81
2022-10-17T01:08:54.775Z,14.77
2022-10-17T01:09:56.643Z,14.74
2022-10-17T01:11:13.132Z,14.71
2022-10-17T01:12:26.791Z,14.67
2022-10-17T01:13:38.983Z,14.69
2022-10-17T01:14:40.286Z,14.67
2022-10-17T01:15:50.422Z,14.64
2022-10-17T01:17:05.916Z,14.60
2022-10-17T01:18:13.920Z,14.59
2022-10-17T01:19:34.108Z,14.56
2022-10-17T01:20:44.500Z,14.58
2022-10-17T01:22:00.018Z,14.58
2022-10-17T01:23:07.448Z,14.60
2022-10-17T01:24:08.776Z,14.59
2022-10-17T01:25:28.771Z,14.63
2022-10-17T01:26:48.532Z,14.64
2022-10-17T01:27:53.514Z,14.67
2022-10-17T01:29:06.818Z,14.66
2022-10-17T01:30:11.081Z,14.68
2022-10-17T01:31:13.748Z,14.68
2022-10-17T01:32:19.004Z,14.68
2022-10-17T01:33:31.175Z,14.68
2022-10-17T01:34:40.504Z,14.70
2022-10-17T01:35:47.364Z,14.68
2022-10-17T01:36:57.839Z,14.67
2022-10-17T01:38:04.186Z,14.66
2022-10-17T01:39:14.320Z,14.64
2022-10-17T01:40:22.456Z,14.61
2022-10-17T01:41:44.248Z,14.55
2022-10-17T01:43:23.925Z,14.51
2022-10-17T01:44:29.911Z,14.45
2022-10-17T01:45:31.429Z,14.41
2022-10-17T01:46:38.309Z,14.43
2022-10-17T01:47:41.471Z,14.36
2022-10-17T01:48:44.768Z,14.32
2022-10-17T01:49:46.910Z,14.26
2022-10-17T01:50:53.525Z,14.20
2022-10-17T01:52:00.956Z,14.15
2022-10-17T01:53:08.852Z,14.09
2022-10-17T01:54:22.154Z,14.07
2022-10-17T01:55:35.039Z,14.07
2022-10-17T01:56:37.949Z,14.03
2022-10-17T01:57:41.487Z,13.98
2022-10-17T01:58:50.046Z,13.95
2022-10-17T01:59:54.547Z,13.94
2022-10-17T02:00:58.440Z,13.93
2022-10-17T02:02:00.923Z,13.93
2022-10-17T02:03:04.530Z,13.91
2022-10-17T02:04:06.843Z,13.88
2022-10-17T02:05:08.488Z,13.85
2022-10-17T02:06:09.861Z,13.85
2022-10-17T02:07:12.488Z,13.86
2022-10-17T02:08:13.881Z,13.87
2022-10-17T02:09:16.894Z,13.84
2022-10-17T02:10:22.273Z,13.81
2022-10-17T02:11:24.673Z,13.78
2022-10-17T02:12:32.069Z,13.76
2022-10-17T02:13:40.677Z,13.75
2022-10-17T02:14:46.502Z,13.72
2022-10-17T02:15:53.846Z,13.73
2022-10-17T02:16:55.133Z,13.71
2022-10-17T02:18:15.015Z,13.66
2022-10-17T02:19:25.223Z,13.62
2022-10-17T02:20:41.716Z,13.59
2022-10-17T02:22:01.261Z,13.53
2022-10-17T02:23:02.532Z,13.58
2022-10-17T02:24:20.551Z,13.57
2022-10-17T02:25:27.499Z,13.50
2022-10-17T02:26:33.993Z,13.49
2022-10-17T02:27:41.843Z,13.47
2022-10-17T02:28:58.633Z,13.45
2022-10-17T02:30:08.338Z,13.43
2022-10-17T02:31:28.675Z,13.45
2022-10-17T02:32:32.941Z,13.44
2022-10-17T02:33:37.616Z,13.44
2022-10-17T02:34:39.325Z,13.44
2022-10-17T02:35:43.672Z,13.45
2022-10-17T02:36:47.977Z,13.43
2022-10-17T02:37:51.236Z,13.37
2022-10-17T02:38:54.401Z,13.34
2022-10-17T02:39:57.632Z,13.30
2022-10-17T02:40:59.051Z,13.32
2022-10-17T02:42:02.453Z,13.29
2022-10-17T02:43:04.815Z,13.28
2022-10-17T02:44:07.085Z,13.27
2022-10-17T02:45:08.862Z,13.27
2022-10-17T02:46:13.316Z,13.20
2022-10-17T02:47:21.818Z,13.18
2022-10-17T02:48:23.108Z,13.14
2022-10-17T02:49:29.579Z,13.12
2022-10-17T02:50:38.621Z,13.14
2022-10-17T02:51:47.009Z,13.13
2022-10-17T02:52:51.724Z,13.11
2022-10-17T02:54:09.352Z,13.11
2022-10-17T02:55:21.348Z,13.09
2022-10-17T02:56:25.214Z,13.02
2022-10-17T02:57:29.611Z,13.00
2022-10-17T02:58:32.739Z,12.98
2022-10-17T02:59:36.853Z,12.95
2022-10-17T03:00:38.856Z,12.95
2022-10-17T03:01:40.942Z,12.97
2022-10-17T03:02:50.140Z,13.03
2022-10-17T03:03:51.483Z,13.07
2022-10-17T03:04:52.970Z,13.11
2022-10-17T03:05:54.384Z,13.16
2022-10-17T03:06:58.690Z,13.22
2022-10-17T03:08:00.023Z,13.25
2022-10-17T03:09:01.666Z,13.30
2022-10-17T03:10:04.133Z,13.49
2022-10-17T03:11:05.890Z,13.59
2022-10-17T03:12:08.067Z,13.65
2022-10-17T03:13:10.091Z,13.68
2022-10-17T03:14:14.306Z,13.73
2022-10-17T03:15:16.017Z,13.76
2022-10-17T03:16:17.548Z,13.78
2022-10-17T03:17:19.306Z,13.82
2022-10-17T03:18:20.651Z,13.84
2022-10-17T03:19:23.833Z,13.87
2022-10-17T03:20:25.396Z,13.87
2022-10-17T03:21:26.704Z,13.85
2022-10-17T03:22:28.386Z,13.84
2022-10-17T03:23:30.826Z,13.82
2022-10-17T03:24:32.208Z,13.78
2022-10-17T03:25:33.561Z,13.76
2022-10-17T03:26:34.933Z,13.76
2022-10-17T03:27:36.485Z,13.77
2022-10-17T03:28:37.882Z,13.75
2022-10-17T03:29:39.547Z,13.72
2022-10-17T03:30:43.080Z,13.72
2022-10-17T03:31:44.428Z,13.68
2022-10-17T03:32:46.040Z,13.64
2022-10-17T03:33:47.484Z,13.59
2022-10-17T03:34:48.816Z,13.53
2022-10-17T03:36:56.751Z,13.43
2022-10-17T03:37:59.409Z,13.38
2022-10-17T03:39:02.221Z,13.26
2022-10-17T03:40:03.988Z,13.19
2022-10-17T03:41:05.792Z,13.09
2022-10-17T03:42:07.362Z,13.10
2022-10-17T03:43:08.745Z,13.04
2022-10-17T03:44:10.074Z,13.02
2022-10-17T03:45:12.005Z,13.00
2022-10-17T03:46:13.782Z,12.95
2022-10-17T03:47:15.188Z,12.99
2022-10-17T03:48:16.486Z,13.08
2022-10-17T03:49:17.778Z,13.14
2022-10-17T03:50:19.085Z,13.18
2022-10-17T03:51:20.612Z,13.25
2022-10-17T03:52:26.375Z,13.31
2022-10-17T03:53:28.788Z,13.37
2022-10-17T03:54:30.943Z,13.41
2022-10-17T03:55:32.252Z,13.43
2022-10-17T03:56:33.610Z,13.46
2022-10-17T03:57:42.191Z,13.48
2022-10-17T03:58:46.186Z,13.50
2022-10-17T03:59:50.251Z,13.57
2022-10-17T04:00:53.964Z,13.57
2022-10-17T04:01:55.302Z,13.60
2022-10-17T04:02:57.754Z,13.63
2022-10-17T04:04:00.470Z,13.67
2022-10-17T04:05:05.542Z,13.71
2022-10-17T04:06:07.120Z,13.72
2022-10-17T04:07:10.468Z,13.72
2022-10-17T04:08:15.162Z,13.69
2022-10-17T04:09:37.368Z,13.67
2022-10-17T04:10:52.408Z,13.66
2022-10-17T04:11:53.788Z,13.65
2022-10-17T04:12:56.385Z,13.62
2022-10-17T04:13:58.061Z,13.61
2022-10-17T04:15:00.567Z,13.58
2022-10-17T04:16:06.405Z,13.60
2022-10-17T04:17:09.414Z,13.60
2022-10-17T04:18:11.403Z,13.64
2022-10-17T04:19:13.347Z,13.65
2022-10-17T04:20:18.646Z,13.66
2022-10-17T04:21:20.078Z,13.70
2022-10-17T04:22:21.423Z,13.72
2022-10-17T04:23:23.368Z,13.73
2022-10-17T04:24:29.871Z,13.73
2022-10-17T04:25:43.890Z,13.78
2022-10-17T04:26:45.540Z,13.77
2022-10-17T04:27:47.864Z,13.74
2022-10-17T04:28:49.515Z,13.76
2022-10-17T04:29:50.819Z,13.80
2022-10-17T04:31:04.393Z,13.82
2022-10-17T04:32:11.428Z,13.80
2022-10-17T04:33:19.321Z,13.86
2022-10-17T04:34:20.998Z,13.80
2022-10-17T04:35:22.858Z,13.84
2022-10-17T04:36:31.448Z,13.81
2022-10-17T04:37:32.813Z,13.80
2022-10-17T04:38:37.204Z,13.80
2022-10-17T04:39:40.160Z,13.80
2022-10-17T04:40:41.803Z,13.80
2022-10-17T04:41:43.366Z,13.78
2022-10-17T04:42:44.731Z,13.75
2022-10-17T04:43:51.095Z,13.76
2022-10-17T04:44:53.771Z,13.79
2022-10-17T04:45:57.615Z,13.80
2022-10-17T04:46:59.002Z,13.80
2022-10-17T04:48:01.080Z,13.84
2022-10-17T04:49:03.078Z,13.81
2022-10-17T04:50:05.353Z,13.80
2022-10-17T04:51:11.095Z,13.80
2022-10-17T04:52:19.405Z,13.78
2022-10-17T04:53:24.171Z,13.82
2022-10-17T04:54:25.593Z,13.81
2022-10-17T04:55:36.587Z,13.79
2022-10-17T04:56:37.862Z,13.80
2022-10-17T04:57:39.225Z,13.82
2022-10-17T04:58:48.476Z,13.85
2022-10-17T04:59:49.811Z,13.84
2022-10-17T05:01:07.157Z,13.81
2022-10-17T05:02:09.279Z,13.81
2022-10-17T05:03:11.505Z,13.85
2022-10-17T05:04:12.832Z,13.83
2022-10-17T05:05:14.171Z,13.84
2022-10-17T05:06:17.024Z,13.83
2022-10-17T05:07:22.584Z,13.82
2022-10-17T05:08:38.090Z,13.79
2022-10-17T05:09:39.423Z,13.76
2022-10-17T05:10:41.941Z,13.74
2022-10-17T05:11:43.347Z,13.75
2022-10-17T05:12:46.879Z,13.72
2022-10-17T05:13:52.328Z,13.70
2022-10-17T05:14:53.703Z,13.68
2022-10-17T05:16:01.260Z,13.69
2022-10-17T05:17:02.586Z,13.73
2022-10-17T05:18:04.826Z,13.76
2022-10-17T05:19:06.155Z,13.77
2022-10-17T05:20:14.776Z,13.77
2022-10-17T05:21:16.302Z,13.77
2022-10-17T05:22:17.620Z,13.75
2022-10-17T05:23:18.919Z,13.81
2022-10-17T05:24:20.277Z,13.79
2022-10-17T05:25:22.682Z,13.74
2022-10-17T05:26:24.544Z,13.72
2022-10-17T05:27:26.010Z,13.72
2022-10-17T05:28:27.356Z,13.70
2022-10-17T05:29:32.561Z,13.69
2022-10-17T05:31:06.851Z,13.68
2022-10-17T05:32:08.288Z,13.67
2022-10-17T05:33:10.153Z,13.70
2022-10-17T05:34:13.847Z,13.72
2022-10-17T05:35:16.306Z,13.71
2022-10-17T05:36:17.847Z,13.71
2022-10-17T05:37:19.329Z,13.72
2022-10-17T05:38:24.919Z,13.77
2022-10-17T05:39:26.237Z,13.78
2022-10-17T05:40:27.553Z,13.78
2022-10-17T05:41:29.372Z,13.77
2022-10-17T05:42:31.086Z,13.75
2022-10-17T05:43:33.430Z,13.75
2022-10-17T05:44:34.849Z,13.75
2022-10-17T05:45:37.062Z,13.73
2022-10-17T05:46:38.612Z,13.73
2022-10-17T05:47:40.352Z,13.74
2022-10-17T05:48:41.678Z,13.73
2022-10-17T05:49:48.636Z,13.75
2022-10-17T05:50:59.256Z,13.73
2022-10-17T05:52:00.906Z,13.73
2022-10-17T05:53:06.346Z,13.74
2022-10-17T05:54:13.568Z,13.73
2022-10-17T05:55:14.979Z,13.72
2022-10-17T05:56:16.296Z,13.72
2022-10-17T05:57:17.598Z,13.72
2022-10-17T05:58:22.513Z,13.70
2022-10-17T05:59:33.788Z,13.68
2022-10-17T06:00:41.133Z,13.69
2022-10-17T06:01:42.571Z,13.68
2022-10-17T06:02:44.222Z,13.67
2022-10-17T06:03:47.417Z,13.67
2022-10-17T06:04:48.807Z,13.66
2022-10-17T06:05:50.134Z,13.68
2022-10-17T06:06:51.463Z,13.69
2022-10-17T06:07:52.782Z,13.76
2022-10-17T06:08:55.356Z,13.80
2022-10-17T06:10:03.177Z,13.85
2022-10-17T06:11:07.538Z,13.88
2022-10-17T06:12:11.390Z,13.92
2022-10-17T06:13:12.687Z,13.93
2022-10-17T06:14:14.432Z,13.94
2022-10-17T06:15:16.448Z,13.94
2022-10-17T06:16:21.975Z,13.94
2022-10-17T06:17:23.460Z,13.94
2022-10-17T06:18:24.921Z,13.94
2022-10-17T06:19:26.351Z,13.92
2022-10-17T06:20:27.748Z,13.95
2022-10-17T06:21:29.251Z,13.96
2022-10-17T06:22:39.147Z,13.99
2022-10-17T06:23:46.224Z,13.97
2022-10-17T06:24:56.064Z,13.98
2022-10-17T06:25:58.647Z,13.96
2022-10-17T06:26:59.979Z,13.96
2022-10-17T06:28:01.583Z,13.94
2022-10-17T06:29:03.296Z,13.99
2022-10-17T06:30:09.546Z,13.99
2022-10-17T06:31:12.501Z,13.99
2022-10-17T06:32:15.099Z,14.00
2022-10-17T06:33:19.528Z,14.06
2022-10-17T06:34:20.844Z,14.04
2022-10-17T06:35:22.287Z,14.06
2022-10-17T06:36:23.591Z,14.08
2022-10-17T06:37:25.759Z,14.05
2022-10-17T06:38:27.349Z,14.03
2022-10-17T06:39:31.006Z,14.03
2022-10-17T06:40:38.121Z,14.00
2022-10-17T06:41:39.677Z,14.01
2022-10-17T06:42:43.276Z,14.03
2022-10-17T06:44:11.617Z,14.02
2022-10-17T06:45:31.340Z,14.02
2022-10-17T06:46:48.909Z,14.03
2022-10-17T06:47:51.986Z,14.05
2022-10-17T06:49:22.501Z,14.06
2022-10-17T06:50:26.421Z,14.07
2022-10-17T06:52:06.037Z,14.07
2022-10-17T06:53:15.822Z,14.07
2022-10-17T06:54:23.036Z,14.07
2022-10-17T06:55:40.250Z,14.07
2022-10-17T06:56:52.082Z,14.07
2022-10-17T06:58:12.153Z,14.09
2022-10-17T06:59:29.736Z,14.12
2022-10-17T07:00:35.957Z,14.14
2022-10-17T07:01:37.465Z,14.14
2022-10-17T07:02:39.288Z,14.15
2022-10-17T07:03:40.933Z,14.14
2022-10-17T07:04:42.255Z,14.13
2022-10-17T07:05:51.196Z,14.19
2022-10-17T07:06:52.607Z,14.22
2022-10-17T07:07:56.427Z,14.23
2022-10-17T07:08:57.867Z,14.25
2022-10-17T07:09:59.222Z,14.27
2022-10-17T07:11:08.616Z,14.28
2022-10-17T07:12:09.933Z,14.32
2022-10-17T07:13:17.116Z,14.39
2022-10-17T07:14:18.428Z,14.43
2022-10-17T07:15:20.968Z,14.44
2022-10-17T07:16:22.348Z,14.45
2022-10-17T07:17:31.487Z,14.47
2022-10-17T07:18:33.063Z,14.48
2022-10-17T07:19:34.347Z,14.50
2022-10-17T07:20:35.897Z,14.52
2022-10-17T07:21:39.228Z,14.54
2022-10-17T07:22:41.937Z,14.58
2022-10-17T07:23:43.725Z,14.63
2022-10-17T07:24:45.619Z,14.67
2022-10-17T07:26:03.785Z,14.70
2022-10-17T07:27:05.151Z,14.77
2022-10-17T07:28:06.470Z,14.80
2022-10-17T07:29:07.933Z,14.87
2022-10-17T07:30:13.392Z,14.91
2022-10-17T07:31:25.259Z,14.95
2022-10-17T07:32:26.558Z,14.96
2022-10-17T07:33:27.860Z,15.01
2022-10-17T07:34:29.345Z,15.05
2022-10-17T07:35:30.702Z,15.09
2022-10-17T07:36:32.007Z,15.17
2022-10-17T07:37:36.094Z,15.21
2022-10-17T07:38:37.423Z,15.24
2022-10-17T07:39:38.756Z,15.25
2022-10-17T07:40:40.089Z,15.27
2022-10-17T07:41:41.440Z,15.27
2022-10-17T07:42:42.886Z,15.30
2022-10-17T07:43:45.180Z,15.32
2022-10-17T07:44:46.576Z,15.35
2022-10-17T07:45:48.230Z,15.38
2022-10-17T07:46:49.541Z,15.40
2022-10-17T07:47:51.389Z,15.46
2022-10-17T07:48:52.734Z,15.52
2022-10-17T07:49:55.576Z,15.52
2022-10-17T07:50:56.868Z,15.54
2022-10-17T07:51:58.249Z,15.55
2022-10-17T07:52:59.544Z,15.60
2022-10-17T07:54:00.845Z,15.62
2022-10-17T07:55:02.148Z,15.64
2022-10-17T07:56:04.642Z,15.67
2022-10-17T07:57:06.338Z,15.71
2022-10-17T07:58:08.360Z,15.74
2022-10-17T07:59:09.812Z,15.76
2022-10-17T08:00:11.379Z,15.79
2022-10-17T08:01:16.224Z,15.81
2022-10-17T08:02:22.249Z,15.86
2022-10-17T08:03:23.555Z,15.90
2022-10-17T08:04:24.981Z,15.93
2022-10-17T08:05:26.525Z,15.96
2022-10-17T08:06:27.865Z,15.99
2022-10-17T08:07:30.175Z,16.02
2022-10-17T08:08:31.836Z,16.07
2022-10-17T08:09:33.188Z,16.09
2022-10-17T08:10:34.483Z,16.11
2022-10-17T08:11:35.802Z,16.15
2022-10-17T08:12:37.141Z,16.18
2022-10-17T08:13:38.510Z,16.22
2022-10-17T08:14:39.935Z,16.24
2022-10-17T08:15:41.265Z,16.27
2022-10-17T08:16:42.665Z,16.31
2022-10-17T08:17:43.940Z,16.37
2022-10-17T08:18:45.294Z,16.40
2022-10-17T08:19:46.625Z,16.43
2022-10-17T08:20:47.903Z,16.47
2022-10-17T08:21:49.196Z,16.55
2022-10-17T08:22:53.887Z,16.62
2022-10-17T08:23:55.365Z,16.66
2022-10-17T08:24:56.700Z,16.74
2022-10-17T08:26:01.272Z,16.75
2022-10-17T08:27:02.621Z,16.77
2022-10-17T08:28:03.987Z,16.79
2022-10-17T08:29:05.386Z,16.84
2022-10-17T08:30:07.018Z,16.87
2022-10-17T08:31:13.346Z,16.89
2022-10-17T08:32:14.653Z,16.92
2022-10-17T08:33:19.091Z,16.95
2022-10-17T08:34:20.415Z,17.04
2022-10-17T08:35:22.042Z,17.07
2022-10-17T08:36:23.343Z,17.09
2022-10-17T08:37:24.629Z,17.11
2022-10-17T08:38:27.947Z,17.12
2022-10-17T08:39:29.328Z,17.12
2022-10-17T08:40:31.807Z,17.12
2022-10-17T08:41:51.702Z,17.16
2022-10-17T08:43:01.971Z,17.21
2022-10-17T08:44:14.221Z,17.25
2022-10-17T08:45:30.168Z,17.32
2022-10-17T08:46:34.221Z,17.41
2022-10-17T08:47:38.229Z,17.48
2022-10-17T08:48:45.440Z,17.50
2022-10-17T08:49:49.851Z,17.55
2022-10-17T08:50:56.458Z,17.57
2022-10-17T08:52:02.588Z,17.57
2022-10-17T08:53:06.748Z,17.56
2022-10-17T08:54:20.488Z,17.60
2022-10-17T08:55:36.948Z,17.59
2022-10-17T08:56:48.526Z,17.61
2022-10-17T08:57:50.735Z,17.59
2022-10-17T08:58:52.550Z,17.61
2022-10-17T08:59:54.124Z,17.63
2022-10-17T09:01:14.224Z,17.64
2022-10-17T09:02:15.579Z,17.69
2022-10-17T09:03:23.646Z,17.72
2022-10-17T09:04:40.216Z,17.77
2022-10-17T09:05:44.560Z,17.80
2022-10-17T09:07:04.749Z,17.84
2022-10-17T09:08:22.308Z,17.87
2022-10-17T09:09:26.582Z,17.91
2022-10-17T09:10:27.845Z,17.93
2022-10-17T09:11:41.360Z,17.97
2022-10-17T09:12:54.856Z,18.00
2022-10-17T09:13:56.145Z,18.02
2022-10-17T09:15:16.449Z,18.02
2022-10-17T09:16:17.780Z,18.06
2022-10-17T09:17:37.560Z,18.07
2022-10-17T09:18:41.257Z,18.14
2022-10-17T09:19:54.980Z,18.18
2022-10-17T09:21:00.184Z,18.24
2022-10-17T09:22:04.473Z,18.27
2022-10-17T09:23:20.881Z,18.27
2022-10-17T09:24:24.491Z,18.33
2022-10-17T09:25:26.874Z,18.34
2022-10-17T09:26:28.366Z,18.39
2022-10-17T09:27:35.428Z,18.46
2022-10-17T09:28:40.896Z,18.50
2022-10-17T09:29:45.131Z,18.51
2022-10-17T09:30:54.072Z,18.53
2022-10-17T09:32:02.423Z,18.54
2022-10-17T09:33:35.555Z,18.53
2022-10-17T09:34:54.109Z,18.59
2022-10-17T09:35:56.172Z,18.60
2022-10-17T09:36:58.470Z,18.61
2022-10-17T09:37:59.835Z,18.60
2022-10-17T09:39:01.133Z,18.60
2022-10-17T09:40:02.509Z,18.61
2022-10-17T09:41:15.738Z,18.61
2022-10-17T09:42:26.782Z,18.64
2022-10-17T09:43:28.375Z,18.67
2022-10-17T09:44:31.512Z,18.70
2022-10-17T09:45:38.154Z,18.75
2022-10-17T09:46:39.472Z,18.82
2022-10-17T09:47:43.339Z,18.83
2022-10-17T09:48:49.824Z,18.90
2022-10-17T09:49:53.966Z,18.95
2022-10-17T09:51:08.277Z,19.01
2022-10-17T09:52:19.785Z,19.08
2022-10-17T09:53:21.037Z,19.12
2022-10-17T09:54:24.912Z,19.16
2022-10-17T09:55:31.165Z,19.17
2022-10-17T09:56:52.427Z,19.21
2022-10-17T09:57:58.011Z,19.29
2022-10-17T09:58:59.359Z,19.31
2022-10-17T10:00:02.461Z,19.33
2022-10-17T10:01:19.654Z,19.39
2022-10-17T10:02:25.533Z,19.43
2022-10-17T10:03:26.961Z,19.52
2022-10-17T10:04:33.663Z,19.56
2022-10-17T10:05:43.489Z,19.64
2022-10-17T10:07:04.655Z,19.68
2022-10-17T10:08:12.567Z,19.74
2022-10-17T10:09:30.253Z,19.79
2022-10-17T10:10:32.084Z,19.85
2022-10-17T10:11:47.257Z,19.87
2022-10-17T10:13:01.576Z,19.93
2022-10-17T10:14:11.246Z,19.96
2022-10-17T10:15:32.850Z,20.01
2022-10-17T10:16:41.142Z,20.03
2022-10-17T10:17:42.463Z,20.07
2022-10-17T10:18:45.470Z,20.10
2022-10-17T10:19:52.612Z,20.10
2022-10-17T10:21:12.523Z,20.13
2022-10-17T10:22:17.220Z,20.15
2022-10-17T10:23:19.064Z,20.18
2022-10-17T10:24:20.361Z,20.25
2022-10-17T10:25:22.089Z,20.31
2022-10-17T10:26:25.583Z,20.34
2022-10-17T10:27:28.760Z,20.39
2022-10-17T10:28:31.989Z,20.41
2022-10-17T10:29:33.325Z,20.47
2022-10-17T10:30:36.229Z,20.51
2022-10-17T10:31:40.530Z,20.47
2022-10-17T10:32:45.383Z,20.48
2022-10-17T10:33:49.714Z,20.53
2022-10-17T10:35:16.501Z,20.59
2022-10-17T10:36:18.126Z,20.60
2022-10-17T10:37:21.656Z,20.65
2022-10-17T10:38:23.307Z,20.76
2022-10-17T10:39:47.658Z,20.87
2022-10-17T10:40:55.968Z,20.93
2022-10-17T10:41:57.364Z,21.02
2022-10-17T10:43:04.916Z,21.02
2022-10-17T10:44:14.289Z,21.09
2022-10-17T10:45:47.096Z,21.13
2022-10-17T10:46:47.713Z,21.16
2022-10-17T10:47:51.991Z,21.17
2022-10-17T10:48:57.774Z,21.19
2022-10-17T10:50:15.998Z,21.22
2022-10-17T10:51:20.042Z,21.34
2022-10-17T10:52:30.170Z,21.41
2022-10-17T10:53:34.892Z,21.48
2022-10-17T10:56:07.223Z,21.55
2022-10-17T10:57:12.705Z,21.57
2022-10-17T10:58:21.495Z,21.56
2022-10-17T10:59:29.107Z,21.57
2022-10-17T11:00:32.268Z,21.58
2022-10-17T11:01:46.639Z,21.63
2022-10-17T11:03:01.218Z,21.71
2022-10-17T11:04:12.224Z,21.85
2022-10-17T11:05:33.783Z,21.89
2022-10-17T11:06:37.046Z,21.97
2022-10-17T11:07:45.457Z,22.00
2022-10-17T11:09:02.546Z,22.09
2022-10-17T11:10:30.343Z,22.13
2022-10-17T11:11:38.268Z,22.18
2022-10-17T11:14:13.763Z,22.19
2022-10-17T11:15:25.433Z,22.20
2022-10-17T11:16:35.779Z,22.31
2022-10-17T11:17:37.075Z,22.39
2022-10-17T11:18:38.368Z,22.39
2022-10-17T11:19:52.230Z,22.43
2022-10-17T11:20:56.712Z,22.46
2022-10-17T11:22:05.181Z,22.47
2022-10-17T11:23:12.425Z,22.47
2022-10-17T11:24:19.757Z,22.46
2022-10-17T11:25:28.877Z,22.44
2022-10-17T11:26:35.457Z,22.44
2022-10-17T11:27:36.739Z,22.51
2022-10-17T11:28:38.124Z,22.61
2022-10-17T11:29:41.299Z,22.59
2022-10-17T11:30:48.414Z,22.65
2022-10-17T11:31:52.533Z,22.66
2022-10-17T11:32:57.976Z,22.67
2022-10-17T11:34:17.977Z,22.68
2022-10-17T11:35:27.219Z,22.68
2022-10-17T11:36:30.503Z,22.67
2022-10-17T11:37:34.163Z,22.66
2022-10-17T11:38:56.500Z,22.67
2022-10-17T11:40:00.827Z,22.70
2022-10-17T11:41:03.886Z,22.71
2022-10-17T11:42:07.470Z,22.73
2022-10-17T11:43:19.485Z,22.75
2022-10-17T11:44:23.501Z,22.77
2022-10-17T11:45:26.020Z,22.82
2022-10-17T11:46:28.344Z,22.89
2022-10-17T11:47:38.735Z,22.93
2022-10-17T11:48:58.928Z,22.98
2022-10-17T11:51:59.906Z,23.01
2022-10-17T11:52:56.595Z,23.10
2022-10-17T11:54:10.453Z,23.09
2022-10-17T11:55:17.261Z,23.09
2022-10-17T11:56:21.318Z,23.08
2022-10-17T11:57:49.921Z,23.16
2022-10-17T11:59:29.954Z,23.27
2022-10-17T12:00:42.172Z,23.36
2022-10-17T12:01:52.304Z,23.37
2022-10-17T12:03:12.519Z,23.44
2022-10-17T12:04:32.569Z,23.44
2022-10-17T12:05:42.868Z,23.45
2022-10-17T12:07:02.846Z,23.48
2022-10-17T12:08:06.662Z,23.48
2022-10-17T12:09:26.253Z,23.44
2022-10-17T12:10:27.581Z,23.44
2022-10-17T12:11:40.216Z,23.47
2022-10-17T12:12:41.600Z,23.48
2022-10-17T12:13:50.253Z,23.48
2022-10-17T12:14:51.608Z,23.50
2022-10-17T12:15:53.060Z,23.54
2022-10-17T12:16:54.409Z,23.53
2022-10-17T12:17:55.741Z,23.56
2022-10-17T12:19:02.651Z,23.57
2022-10-17T12:20:21.993Z,23.63
2022-10-17T12:21:24.286Z,23.69
2022-10-17T12:22:28.528Z,23.75
2022-10-17T12:23:31.108Z,23.76
2022-10-17T12:24:37.588Z,23.82
2022-10-17T12:26:01.090Z,23.79
2022-10-17T12:27:31.474Z,23.80
2022-10-17T12:28:32.953Z,23.87
2022-10-17T12:29:34.566Z,23.94
2022-10-17T12:30:35.907Z,23.93
2022-10-17T12:31:37.274Z,23.92
2022-10-17T12:33:04.329Z,23.93
2022-10-17T12:34:16.492Z,23.93
2022-10-17T12:35:20.764Z,23.91
2022-10-17T12:36:22.058Z,23.91
2022-10-17T12:38:00.107Z,23.92
2022-10-17T12:39:01.465Z,24.02
2022-10-17T12:40:03.316Z,24.02
2022-10-17T12:42:25.799Z,24.00
2022-10-17T12:43:27.055Z,23.99
2022-10-17T12:44:29.425Z,23.99
2022-10-17T12:46:41.703Z,24.03
2022-10-17T12:47:42.994Z,24.06
2022-10-17T12:48:44.495Z,24.03
2022-10-17T12:49:55.817Z,24.06
2022-10-17T12:52:31.290Z,24.13
2022-10-17T12:53:41.515Z,24.08
2022-10-17T12:55:13.770Z,24.14
2022-10-17T12:56:19.901Z,24.08
2022-10-17T12:57:32.009Z,24.11
2022-10-17T12:58:35.166Z,24.05
2022-10-17T12:59:37.145Z,24.06
2022-10-17T13:00:43.814Z,24.00
2022-10-17T13:01:54.146Z,23.90
2022-10-17T13:03:01.731Z,23.80
2022-10-17T13:04:03.593Z,23.79
2022-10-17T13:05:07.155Z,23.77
2022-10-17T13:06:14.716Z,23.72
2022-10-17T13:07:20.812Z,23.69
2022-10-17T13:08:24.440Z,23.70
2022-10-17T13:09:33.213Z,23.68
2022-10-17T13:10:40.761Z,23.77
2022-10-17T13:11:44.561Z,23.77
2022-10-17T13:12:46.207Z,23.75
2022-10-17T13:13:49.020Z,23.73
2022-10-17T13:14:51.896Z,23.71
2022-10-17T13:15:54.032Z,23.70
2022-10-17T13:16:56.798Z,23.72
2022-10-17T13:17:59.186Z,23.74
2022-10-17T13:19:01.667Z,23.75
2022-10-17T13:20:03.298Z,23.74
2022-10-17T13:21:06.488Z,23.75
2022-10-17T13:22:27.516Z,23.82
2022-10-17T13:23:31.074Z,23.78
2022-10-17T13:24:34.123Z,23.86
2022-10-17T13:25:38.826Z,23.84
2022-10-17T13:26:44.947Z,23.80
2022-10-17T13:27:47.015Z,23.88
2022-10-17T13:29:01.651Z,23.84
2022-10-17T13:30:20.881Z,23.85
2022-10-17T13:31:27.659Z,23.91
2022-10-17T13:32:39.477Z,23.85
2022-10-17T13:33:41.073Z,23.86
2022-10-17T13:34:42.404Z,23.86
2022-10-17T13:36:00.798Z,23.95
2022-10-17T13:37:06.671Z,23.89
2022-10-17T13:38:08.089Z,23.86
2022-10-17T13:39:14.931Z,23.82
2022-10-17T13:41:41.457Z,23.79
2022-10-17T13:42:42.863Z,23.81
2022-10-17T13:43:44.521Z,23.77
2022-10-17T13:44:45.917Z,23.76
2022-10-17T13:45:51.937Z,23.73
2022-10-17T13:46:53.437Z,23.71
2022-10-17T13:47:55.133Z,23.68
2022-10-17T13:49:08.489Z,23.66
2022-10-17T13:50:39.597Z,23.62
2022-10-17T13:51:43.566Z,23.58
2022-10-17T13:52:44.886Z,23.61
2022-10-17T13:53:46.214Z,23.61
2022-10-17T13:54:49.044Z,23.62
2022-10-17T13:56:09.124Z,23.60
2022-10-17T13:57:25.244Z,23.64
2022-10-17T13:58:29.816Z,23.61
2022-10-17T13:59:38.888Z,23.58
2022-10-17T14:00:40.279Z,23.51
2022-10-17T14:01:41.933Z,23.47
2022-10-17T14:02:43.261Z,23.47
2022-10-17T14:03:48.634Z,23.48
2022-10-17T14:05:18.946Z,23.46
2022-10-17T14:06:21.997Z,23.49
2022-10-17T14:07:26.939Z,23.50
2022-10-17T14:08:28.699Z,23.47
2022-10-17T14:09:30.736Z,23.43
2022-10-17T14:10:34.214Z,23.34
2022-10-17T14:11:40.148Z,23.29
2022-10-17T14:12:42.578Z,23.26
2022-10-17T14:13:48.370Z,23.25
2022-10-17T14:15:09.857Z,23.26
2022-10-17T14:16:11.990Z,23.24
2022-10-17T14:17:33.646Z,23.20